Time;durP1;ratioP1;P1;durP2;ratioP2;P2;SDS_P1;SDS_P2;PMS_P1;PMS_P2;Temp;Humidity;BMP_temperature;BMP_pressure;BME280_temperature;BME280_humidity;BME280_pressure;Samples;Min_cycle;Max_cycle;Signal;HPM_P1;HPM_P2
2021/07/23 00:01:49;;;;;;;12.75;8.85;;;;;;;13.79;99.99;101170.78;5033374;28;20470;-77
2021/07/23 00:04:16;;;;;;;12.90;9.95;;;;;;;13.90;99.12;101172.28;5100113;22;20045;-82
2021/07/23 00:06:42;;;;;;;11.82;8.48;;;;;;;13.77;100.00;101177.03;5064870;28;20032;-81
2021/07/23 00:09:09;;;;;;;12.65;9.32;;;;;;;13.75;100.00;101173.53;5046498;28;20072;-80
2021/07/23 00:11:35;;;;;;;13.88;9.65;;;;;;;13.72;100.00;101174.50;5039595;28;20064;-80
2021/07/23 00:14:02;;;;;;;12.38;9.63;;;;;;;13.71;100.00;101169.22;5029045;28;20045;-80
2021/07/23 00:16:29;;;;;;;12.30;8.75;;;;;;;13.69;100.00;101171.03;5013093;28;20091;-78
2021/07/23 00:18:55;;;;;;;12.55;8.27;;;;;;;13.68;100.00;101169.28;5031063;28;20099;-82
2021/07/23 00:21:22;;;;;;;12.23;8.70;;;;;;;13.66;99.56;101165.81;5029944;28;20402;-82
2021/07/23 00:23:49;;;;;;;12.68;9.05;;;;;;;13.60;100.00;101166.81;5014721;28;20106;-81
2021/07/23 00:26:19;;;;;;;14.05;9.40;;;;;;;13.60;98.62;101168.59;5026250;28;20044;-81
2021/07/23 00:28:45;;;;;;;11.25;8.35;;;;;;;13.56;100.00;101161.66;5013465;28;20524;-81
2021/07/23 00:31:12;;;;;;;11.05;8.55;;;;;;;13.54;100.00;101169.66;5026515;28;20498;-81
2021/07/23 00:33:39;;;;;;;13.90;9.15;;;;;;;13.53;100.00;101160.78;5015131;28;20041;-81
2021/07/23 00:36:05;;;;;;;11.60;8.10;;;;;;;13.41;100.00;101166.41;5045301;28;20386;-79
2021/07/23 00:38:32;;;;;;;12.23;8.27;;;;;;;13.50;100.00;101168.84;5030369;28;20055;-80
2021/07/23 00:40:59;;;;;;;11.98;8.82;;;;;;;13.46;100.00;101159.22;5030672;28;20086;-81
2021/07/23 00:43:26;;;;;;;11.50;8.57;;;;;;;13.52;100.00;101159.03;5030581;28;20099;-82
2021/07/23 00:45:54;;;;;;;11.30;8.75;;;;;;;13.49;100.00;101164.44;5047182;28;20041;-81
2021/07/23 00:48:21;;;;;;;15.38;8.85;;;;;;;13.57;100.00;101163.38;5022448;28;20048;-81
2021/07/23 00:50:48;;;;;;;17.20;9.10;;;;;;;13.49;100.00;101161.78;5014548;28;20041;-81
2021/07/23 00:53:15;;;;;;;10.05;7.97;;;;;;;13.36;100.00;101162.09;5024125;28;20494;-82
2021/07/23 00:55:42;;;;;;;14.40;8.57;;;;;;;13.45;100.00;101165.44;5046131;28;20055;-81
2021/07/23 00:58:09;;;;;;;12.38;8.43;;;;;;;13.41;100.00;101161.09;5013480;28;20068;-82
2021/07/23 01:00:39;;;;;;;13.15;8.93;;;;;;;13.36;100.00;101162.97;5014035;28;20045;-82
2021/07/23 01:03:05;;;;;;;14.50;9.32;;;;;;;13.38;100.00;101163.84;5033344;28;20132;-82
2021/07/23 01:05:34;;;;;;;12.20;8.35;;;;;;;13.42;100.00;101159.31;5033209;28;20068;-80
2021/07/23 01:08:01;;;;;;;11.18;8.15;;;;;;;13.36;100.00;101162.09;5044252;28;20091;-81
2021/07/23 01:10:28;;;;;;;12.45;8.30;;;;;;;13.27;100.00;101160.53;5049281;28;20056;-80
2021/07/23 01:12:55;;;;;;;11.07;8.23;;;;;;;13.16;100.00;101163.41;5032623;28;20041;-80
2021/07/23 01:15:21;;;;;;;12.13;8.45;;;;;;;13.17;100.00;101162.50;5016173;28;20075;-79
2021/07/23 01:17:48;;;;;;;10.07;7.47;;;;;;;13.22;100.00;101157.16;5022412;28;20041;-79
2021/07/23 01:20:17;;;;;;;11.35;8.55;;;;;;;13.31;100.00;101158.72;5033007;28;20053;-82
2021/07/23 01:22:43;;;;;;;12.23;8.15;;;;;;;13.25;100.00;101167.69;5036439;28;20041;-79
2021/07/23 01:25:10;;;;;;;12.57;8.15;;;;;;;13.22;100.00;101159.81;5005430;28;20068;-80
2021/07/23 01:27:43;;;;;;;11.63;8.55;;;;;;;13.17;100.00;101156.34;5028850;28;20068;-80
2021/07/23 01:30:10;;;;;;;14.77;8.65;;;;;;;13.15;100.00;101163.47;5050333;28;20041;-79
2021/07/23 01:32:37;;;;;;;11.40;8.13;;;;;;;13.06;100.00;101159.25;5024815;28;20095;-80
2021/07/23 01:35:05;;;;;;;9.88;7.65;;;;;;;13.07;100.00;101160.13;5046665;28;20390;-79
2021/07/23 01:37:32;;;;;;;12.07;7.22;;;;;;;13.02;100.00;101154.03;5046972;28;20043;-79
2021/07/23 01:39:59;;;;;;;11.55;8.10;;;;;;;13.06;100.00;101150.41;5049496;28;20037;-79
2021/07/23 01:42:30;;;;;;;14.07;8.75;;;;;;;13.17;100.00;101149.25;5040736;28;20033;-80
2021/07/23 01:44:56;;;;;;;13.05;8.35;;;;;;;13.14;100.00;101153.78;5046584;28;20041;-79
2021/07/23 01:47:23;;;;;;;10.68;7.78;;;;;;;12.94;100.00;101147.13;5042853;28;20036;-80
2021/07/23 01:49:50;;;;;;;11.95;8.43;;;;;;;12.95;100.00;101146.22;5050015;28;20546;-80
2021/07/23 01:52:17;;;;;;;12.05;8.10;;;;;;;13.09;100.00;101145.03;5047824;28;20444;-79
2021/07/23 01:54:43;;;;;;;10.13;7.57;;;;;;;13.11;100.00;101151.16;5018523;28;20052;-80
2021/07/23 01:57:10;;;;;;;10.40;7.45;;;;;;;13.00;100.00;101145.25;5042666;28;20041;-79
2021/07/23 01:59:37;;;;;;;11.00;8.15;;;;;;;12.99;100.00;101152.31;5025017;28;20056;-80
2021/07/23 02:02:03;;;;;;;11.75;7.80;;;;;;;12.99;100.00;101146.16;5032784;28;20037;-81
2021/07/23 02:04:30;;;;;;;10.57;7.53;;;;;;;12.96;100.00;101150.63;5041712;28;20037;-79
2021/07/23 02:06:57;;;;;;;11.60;8.10;;;;;;;12.91;100.00;101147.19;5026640;28;20037;-80
2021/07/23 02:09:24;;;;;;;9.88;6.97;;;;;;;12.87;100.00;101148.19;5015456;28;20498;-80
2021/07/23 02:11:51;;;;;;;9.73;7.63;;;;;;;12.94;100.00;101148.91;5045130;28;20037;-81
2021/07/23 02:14:17;;;;;;;13.73;9.13;;;;;;;12.95;100.00;101150.66;5022970;28;20049;-80
2021/07/23 02:16:44;;;;;;;12.88;8.52;;;;;;;12.88;100.00;101149.06;5012177;28;20052;-79
2021/07/23 02:19:11;;;;;;;12.32;7.30;;;;;;;12.87;100.00;101148.19;5026729;28;20477;-80
2021/07/23 02:21:37;;;;;;;10.18;7.75;;;;;;;12.88;100.00;101147.28;5029892;28;20416;-81
2021/07/23 02:24:05;;;;;;;10.05;7.70;;;;;;;12.89;100.00;101142.84;5031237;28;20490;-80
2021/07/23 02:26:32;;;;;;;11.70;8.25;;;;;;;12.74;100.00;101145.81;5062760;28;20041;-79
2021/07/23 02:28:58;;;;;;;11.57;8.38;;;;;;;12.75;100.00;101143.13;5026806;28;20050;-80
2021/07/23 02:31:25;;;;;;;13.43;8.57;;;;;;;12.79;100.00;101141.31;5044046;28;20090;-79
2021/07/23 02:33:52;;;;;;;10.50;8.43;;;;;;;12.91;100.00;101144.53;5011053;28;20490;-82
2021/07/23 02:36:19;;;;;;;13.10;8.48;;;;;;;12.74;100.00;101140.53;5032164;28;20520;-80
2021/07/23 02:38:46;;;;;;;10.63;7.28;;;;;;;12.62;100.00;101133.72;5031156;28;20441;-81
2021/07/23 02:41:12;;;;;;;10.18;7.82;;;;;;;12.64;100.00;101138.06;5049751;28;20049;-80
2021/07/23 02:43:39;;;;;;;10.15;7.38;;;;;;;12.67;100.00;101135.34;5038472;28;20037;-78
2021/07/23 02:46:06;;;;;;;12.63;8.45;;;;;;;12.63;100.00;101135.47;5047969;28;20118;-79
2021/07/23 02:48:39;;;;;;;11.75;7.97;;;;;;;12.64;100.00;101130.13;5030966;28;20045;-80
2021/07/23 02:51:05;;;;;;;13.68;8.27;;;;;;;12.65;100.00;101131.84;5016406;28;20045;-78
2021/07/23 02:53:32;;;;;;;10.45;7.25;;;;;;;12.75;100.00;101135.19;5031622;28;20413;-80
2021/07/23 02:55:59;;;;;;;11.45;7.80;;;;;;;12.53;100.00;101134.78;5041244;28;20441;-82
2021/07/23 02:58:25;;;;;;;12.77;8.00;;;;;;;12.39;100.00;101134.19;5029609;28;20037;-79
2021/07/23 03:00:52;;;;;;;11.20;7.63;;;;;;;12.46;100.00;101125.22;5023509;28;20033;-81
2021/07/23 03:03:19;;;;;;;12.95;8.07;;;;;;;12.72;100.00;101129.09;5043437;28;20425;-80
2021/07/23 03:05:45;;;;;;;13.25;7.75;;;;;;;12.62;100.00;101129.28;5026856;28;20091;-79
2021/07/23 03:08:12;;;;;;;9.80;7.40;;;;;;;12.46;100.00;101133.16;5032090;28;20029;-80
2021/07/23 03:10:39;;;;;;;12.40;8.88;;;;;;;12.40;100.00;101128.84;5005029;28;20045;-82
2021/07/23 03:13:05;;;;;;;12.52;8.23;;;;;;;12.60;100.00;101128.41;5034199;28;20048;-83
2021/07/23 03:15:32;;;;;;;11.98;8.02;;;;;;;12.60;100.00;101124.91;5039614;28;20045;-81
2021/07/23 03:17:59;;;;;;;12.63;8.07;;;;;;;12.46;100.00;101124.34;5053094;28;20033;-80
2021/07/23 03:20:25;;;;;;;11.40;8.70;;;;;;;12.50;100.00;101118.94;5056383;28;20044;-81
2021/07/23 03:22:52;;;;;;;12.07;8.63;;;;;;;12.55;100.00;101117.06;5050285;28;20090;-80
2021/07/23 03:25:19;;;;;;;12.90;8.30;;;;;;;12.62;100.00;101117.81;5031084;28;20135;-81
2021/07/23 03:27:45;;;;;;;11.15;8.38;;;;;;;12.60;100.00;101122.25;5046011;28;20037;-83
2021/07/23 03:30:12;;;;;;;12.70;7.55;;;;;;;12.46;100.00;101127.84;5030035;28;20041;-80
2021/07/23 03:32:39;;;;;;;13.85;8.00;;;;;;;12.42;100.00;101122.63;5030222;28;20038;-80
2021/07/23 03:35:06;;;;;;;12.23;7.47;;;;;;;12.46;100.00;101119.03;5022408;28;20068;-82
2021/07/23 03:37:33;;;;;;;10.18;7.57;;;;;;;12.45;100.00;101118.16;5028460;28;20045;-81
2021/07/23 03:40:00;;;;;;;10.75;7.40;;;;;;;12.48;100.00;101112.78;5023344;28;20060;-82
2021/07/23 03:42:26;;;;;;;12.77;7.43;;;;;;;12.44;100.00;101119.03;5028668;28;20052;-82
2021/07/23 03:44:53;;;;;;;10.52;7.40;;;;;;;12.43;100.00;101121.72;5032266;28;20502;-82
2021/07/23 03:47:20;;;;;;;10.88;7.68;;;;;;;12.40;100.00;101123.53;5028258;28;20437;-83
2021/07/23 03:49:47;;;;;;;10.60;7.50;;;;;;;12.32;100.00;101120.19;5028164;28;20410;-80
2021/07/23 03:52:13;;;;;;;11.27;7.70;;;;;;;12.44;100.00;101108.44;5027123;28;20041;-82
2021/07/23 03:54:40;;;;;;;11.80;8.75;;;;;;;12.52;100.00;101116.22;5024228;28;20041;-84
2021/07/23 03:57:07;;;;;;;9.68;7.07;;;;;;;12.48;100.00;101110.16;5016544;28;20048;-83
2021/07/23 03:59:34;;;;;;;11.00;7.32;;;;;;;12.43;100.00;101114.66;5007615;28;20053;-81
2021/07/23 04:02:01;;;;;;;10.20;6.90;;;;;;;12.51;100.00;101119.78;5030625;28;20528;-82
2021/07/23 04:04:28;;;;;;;12.13;7.78;;;;;;;12.62;100.00;101112.50;5019618;28;20060;-82
2021/07/23 04:07:01;;;;;;;11.05;7.50;;;;;;;12.57;100.00;101117.91;5013614;28;20574;-83
2021/07/23 04:09:29;;;;;;;10.23;7.23;;;;;;;12.57;100.00;101119.66;5015409;28;20508;-81
2021/07/23 04:11:56;;;;;;;9.52;7.40;;;;;;;12.67;100.00;101113.25;5029538;28;20048;-79
2021/07/23 04:14:23;;;;;;;11.38;7.65;;;;;;;12.76;100.00;101107.75;5046096;28;20042;-81
2021/07/23 04:16:50;;;;;;;13.40;7.97;;;;;;;12.76;100.00;101113.06;5013769;28;20065;-81
2021/07/23 04:19:17;;;;;;;9.80;7.70;;;;;;;12.73;100.00;101107.84;5031214;28;20047;-81
2021/07/23 04:21:44;;;;;;;10.20;7.13;;;;;;;12.81;100.00;101110.31;5014561;28;20732;-82
2021/07/23 04:24:11;;;;;;;10.35;6.97;;;;;;;12.88;100.00;101112.81;5044066;28;20060;-81
2021/07/23 04:26:38;;;;;;;10.05;6.85;;;;;;;12.87;100.00;101116.38;5029150;28;20041;-83
2021/07/23 04:29:04;;;;;;;12.73;8.52;;;;;;;12.82;100.00;101112.06;5028105;28;20510;-81
2021/07/23 04:31:31;;;;;;;9.48;7.25;;;;;;;12.84;100.00;101121.72;5041004;28;20037;-83
2021/07/23 04:33:59;;;;;;;10.02;7.70;;;;;;;12.89;100.00;101121.63;5013675;28;20041;-82
2021/07/23 04:36:26;;;;;;;11.02;8.05;;;;;;;12.92;100.00;101118.88;5013224;28;20510;-83
2021/07/23 04:38:53;;;;;;;11.95;7.63;;;;;;;13.06;100.00;101108.84;5032171;28;20432;-82
2021/07/23 04:41:19;;;;;;;10.52;7.70;;;;;;;13.15;100.00;101115.72;5020621;28;20486;-83
2021/07/23 04:43:46;;;;;;;11.20;7.32;;;;;;;13.18;100.00;101119.16;5036576;28;20053;-81
2021/07/23 04:46:13;;;;;;;9.63;7.18;;;;;;;13.23;100.00;101113.78;5032472;28;20513;-81
2021/07/23 04:48:40;;;;;;;9.13;6.95;;;;;;;13.35;100.00;101112.59;5018462;28;20116;-81
2021/07/23 04:51:06;;;;;;;10.18;7.55;;;;;;;13.41;100.00;101117.75;5030808;28;20122;-83
2021/07/23 04:53:33;;;;;;;9.80;6.85;;;;;;;13.47;100.00;101115.84;5049433;28;20052;-80
2021/07/23 04:56:01;;;;;;;10.70;7.82;;;;;;;13.48;100.00;101114.91;5031708;28;20037;-82
2021/07/23 04:58:28;;;;;;;12.38;8.05;;;;;;;13.49;100.00;101121.09;5014071;28;20438;-82
2021/07/23 05:00:55;;;;;;;10.90;7.88;;;;;;;13.58;100.00;101128.81;5011874;28;20494;-82
2021/07/23 05:03:35;;;;;;;12.35;7.22;;;;;;;13.68;100.00;101121.50;5025069;28;20076;-82
2021/07/23 05:06:03;;;;;;;11.80;7.78;;;;;;;13.76;100.00;101124.81;5027169;28;20095;-80
2021/07/23 05:08:30;;;;;;;10.77;7.88;;;;;;;13.86;100.00;101121.00;5019597;28;20489;-82
2021/07/23 05:10:57;;;;;;;10.40;7.38;;;;;;;13.99;100.00;101119.78;5034479;28;20071;-83
2021/07/23 05:13:24;;;;;;;10.35;7.05;;;;;;;14.07;100.00;101109.81;5023636;28;20045;-80
2021/07/23 05:15:50;;;;;;;10.48;7.35;;;;;;;14.11;100.00;101115.91;5032758;28;20033;-81
2021/07/23 05:18:18;;;;;;;10.57;7.40;;;;;;;14.16;100.00;101119.31;5030633;28;20131;-83
2021/07/23 05:20:44;;;;;;;10.43;7.60;;;;;;;14.26;100.00;101114.59;5021160;28;20041;-82
2021/07/23 05:23:11;;;;;;;11.10;7.50;;;;;;;14.33;100.00;101114.38;5033480;28;20045;-81
2021/07/23 05:25:38;;;;;;;11.23;7.63;;;;;;;14.46;100.00;101101.66;5009872;28;20037;-81
2021/07/23 05:28:05;;;;;;;10.05;7.78;;;;;;;14.41;100.00;101111.50;5010938;28;20091;-80
2021/07/23 05:30:31;;;;;;;9.85;7.13;;;;;;;14.44;100.00;101107.88;5020834;28;20056;-82
2021/07/23 05:32:58;;;;;;;9.40;7.10;;;;;;;14.48;100.00;101109.59;5035469;28;20045;-81
2021/07/23 05:35:25;;;;;;;10.65;7.57;;;;;;;14.58;100.00;101103.94;5024569;28;20395;-82
2021/07/23 05:37:52;;;;;;;8.52;6.75;;;;;;;14.67;100.00;101108.13;5047702;28;20518;-82
2021/07/23 05:40:18;;;;;;;9.88;7.75;;;;;;;14.84;100.00;101104.94;5016017;28;20041;-79
2021/07/23 05:42:45;;;;;;;11.35;7.85;;;;;;;14.94;100.00;101101.06;5042734;28;20048;-81
2021/07/23 05:45:12;;;;;;;10.27;7.68;;;;;;;15.03;100.00;101113.22;5040421;28;20049;-82
2021/07/23 05:47:38;;;;;;;9.73;7.80;;;;;;;15.02;100.00;101099.03;5033651;28;20498;-79
2021/07/23 05:50:05;;;;;;;9.43;7.68;;;;;;;15.10;100.00;101106.78;5033199;28;20068;-82
2021/07/23 05:52:32;;;;;;;10.05;7.70;;;;;;;15.07;100.00;101104.22;5033574;28;20044;-84
2021/07/23 05:54:58;;;;;;;12.43;8.98;;;;;;;15.27;100.00;101106.22;5025009;28;20037;-83
2021/07/23 05:57:25;;;;;;;10.38;8.68;;;;;;;15.41;100.00;101106.66;5009371;28;20051;-83
2021/07/23 05:59:52;;;;;;;10.32;7.38;;;;;;;15.53;100.00;101100.03;5028489;28;20037;-83
2021/07/23 06:02:18;;;;;;;11.85;7.80;;;;;;;15.60;100.00;101102.44;5032972;28;20047;-81
2021/07/23 06:04:45;;;;;;;12.35;8.70;;;;;;;15.61;100.00;101106.00;5033880;28;20501;-83
2021/07/23 06:07:14;;;;;;;11.25;7.95;;;;;;;16.20;100.00;101103.88;5032740;28;20120;-83
2021/07/23 06:09:41;;;;;;;9.52;7.45;;;;;;;17.79;96.75;101108.28;5032317;28;20041;-81
2021/07/23 06:12:08;;;;;;;8.15;6.05;;;;;;;19.39;85.48;101099.94;5045334;28;20042;-82
2021/07/23 06:14:35;;;;;;;14.23;7.88;;;;;;;20.44;76.86;101101.66;5030899;28;20049;-84
2021/07/23 06:17:02;;;;;;;9.45;6.78;;;;;;;20.90;72.44;101099.09;5025792;28;20576;-83
2021/07/23 06:19:29;;;;;;;10.13;7.13;;;;;;;21.04;73.95;101091.13;5015880;28;20049;-84
2021/07/23 06:21:56;;;;;;;11.77;7.90;;;;;;;21.09;71.52;101103.31;5028048;28;20045;-81
2021/07/23 06:24:22;;;;;;;9.93;7.30;;;;;;;21.20;72.96;101109.94;5027928;28;20095;-82
2021/07/23 06:26:49;;;;;;;13.27;7.70;;;;;;;21.22;73.30;101108.88;5025131;28;20042;-82
2021/07/23 06:29:16;;;;;;;8.48;7.50;;;;;;;21.30;71.70;101106.66;5029118;28;20033;-82
2021/07/23 06:34:36;;;;;;;9.10;7.35;;;;;;;21.74;68.57;101105.84;4970100;28;20345;-79
2021/07/23 06:37:03;;;;;;;12.95;7.75;;;;;;;21.90;66.75;101109.34;4954487;28;20054;-79
2021/07/23 06:39:30;;;;;;;10.05;7.30;;;;;;;21.91;64.73;101103.00;4974054;28;20047;-79
2021/07/23 06:41:58;;;;;;;8.02;6.57;;;;;;;22.06;64.70;101103.91;4956950;28;20511;-79
2021/07/23 06:44:28;;;;;;;9.95;7.55;;;;;;;22.17;65.53;101097.88;4957473;28;20102;-80
2021/07/23 06:46:55;;;;;;;10.43;7.20;;;;;;;22.19;65.83;101099.50;4968375;28;20042;-79
2021/07/23 06:49:22;;;;;;;7.72;6.72;;;;;;;22.14;62.63;101098.94;4974487;28;20037;-78
2021/07/23 06:51:48;;;;;;;9.27;7.47;;;;;;;22.06;60.93;101100.34;4954187;28;20050;-80
2021/07/23 06:54:15;;;;;;;9.20;7.07;;;;;;;22.22;64.11;101094.91;4942490;28;20447;-79
2021/07/23 06:56:42;;;;;;;8.20;7.38;;;;;;;22.15;63.62;101097.97;4954061;28;20042;-81
2021/07/23 06:59:08;;;;;;;8.35;7.15;;;;;;;22.33;62.46;101095.09;4950467;28;20566;-82
2021/07/23 07:01:35;;;;;;;8.00;7.20;;;;;;;22.51;62.95;101098.47;4964760;28;20203;-85
2021/07/23 07:04:02;;;;;;;9.93;7.32;;;;;;;22.62;62.11;101096.84;4977627;28;20050;-81
2021/07/23 07:06:33;;;;;;;9.20;7.00;;;;;;;22.77;61.70;101094.97;4943639;28;20070;-81
2021/07/23 07:09:00;;;;;;;8.05;7.25;;;;;;;22.87;59.85;101089.88;4975063;28;20092;-81
2021/07/23 07:11:27;;;;;;;9.05;6.28;;;;;;;22.97;59.28;101094.59;4964120;28;20062;-83
2021/07/23 07:13:53;;;;;;;8.68;6.38;;;;;;;23.14;59.58;101095.31;4943714;28;20053;-81
2021/07/23 07:16:20;;;;;;;7.90;7.10;;;;;;;23.29;59.63;101092.47;4968766;28;20070;-80
2021/07/23 07:18:47;;;;;;;7.35;5.97;;;;;;;23.43;57.33;101090.66;4973563;28;20056;-80
2021/07/23 07:21:14;;;;;;;7.47;6.65;;;;;;;23.55;57.69;101089.84;4971412;28;20046;-80
2021/07/23 07:23:41;;;;;;;7.47;6.13;;;;;;;23.68;57.13;101092.59;4975055;28;20108;-80
2021/07/23 07:26:09;;;;;;;8.30;6.72;;;;;;;23.63;55.99;101094.72;4988781;28;20603;-81
2021/07/23 07:28:36;;;;;;;7.00;6.22;;;;;;;23.66;57.24;101091.84;4968083;28;20038;-81
2021/07/23 07:31:02;;;;;;;6.85;5.75;;;;;;;23.51;55.92;101091.00;4968801;28;20042;-79
2021/07/23 07:33:30;;;;;;;7.47;5.82;;;;;;;23.66;56.27;101092.69;4990141;28;20046;-80
2021/07/23 07:35:57;;;;;;;6.40;5.43;;;;;;;23.76;53.92;101096.47;4966956;28;20100;-80
2021/07/23 07:38:24;;;;;;;8.38;5.80;;;;;;;23.59;54.57;101094.94;4957301;28;20035;-83
2021/07/23 07:40:52;;;;;;;6.93;5.18;;;;;;;23.51;51.55;101094.56;4972138;28;20050;-82
2021/07/23 07:43:18;;;;;;;6.63;5.32;;;;;;;23.43;53.92;101091.50;4968088;28;20041;-80
2021/07/23 07:45:45;;;;;;;6.43;4.97;;;;;;;23.65;53.24;101092.81;4973301;28;20072;-79
2021/07/23 07:48:12;;;;;;;9.23;6.00;;;;;;;23.73;51.44;101096.72;4972955;28;20034;-83
2021/07/23 07:50:38;;;;;;;7.82;5.72;;;;;;;23.93;49.86;101100.72;4957045;28;20046;-80
2021/07/23 07:53:09;;;;;;;6.03;4.85;;;;;;;23.77;50.18;101092.81;4953208;28;20051;-80
2021/07/23 07:55:36;;;;;;;8.13;4.90;;;;;;;23.96;52.17;101103.19;4955802;28;20050;-80
2021/07/23 07:58:02;;;;;;;6.78;4.97;;;;;;;24.10;52.03;101103.09;4951467;28;20535;-83
2021/07/23 08:00:29;;;;;;;6.18;5.57;;;;;;;24.09;51.27;101095.13;4940210;28;20046;-79
2021/07/23 08:02:56;;;;;;;9.18;5.65;;;;;;;23.92;46.91;101095.44;4988504;28;20049;-80
2021/07/23 08:05:23;;;;;;;7.15;5.53;;;;;;;24.19;50.54;101095.34;4971449;28;20133;-80
2021/07/23 08:07:50;;;;;;;6.55;5.85;;;;;;;24.14;49.46;101088.44;4972664;28;20062;-80
2021/07/23 08:10:19;;;;;;;8.90;5.63;;;;;;;24.15;51.91;101092.00;4945048;28;20279;-81
2021/07/23 08:12:46;;;;;;;7.43;5.45;;;;;;;24.21;50.47;101091.53;4972191;28;20045;-82
2021/07/23 08:15:16;;;;;;;7.60;5.65;;;;;;;24.00;50.51;101093.06;4973173;28;20500;-81
2021/07/23 08:17:43;;;;;;;8.52;5.80;;;;;;;23.99;51.88;101085.94;4989426;28;20508;-80
2021/07/23 08:20:10;;;;;;;6.50;5.78;;;;;;;23.71;51.50;101092.38;4987960;28;20117;-80
2021/07/23 08:22:37;;;;;;;5.90;5.00;;;;;;;23.90;51.23;101087.44;4955963;28;20133;-81
2021/07/23 08:25:04;;;;;;;6.68;5.05;;;;;;;23.77;50.46;101087.41;4972332;28;20050;-80
2021/07/23 08:27:31;;;;;;;5.65;5.07;;;;;;;23.79;52.74;101090.00;4968704;28;20487;-80
2021/07/23 08:29:58;;;;;;;9.63;4.95;;;;;;;23.70;53.81;101090.63;4983545;28;20050;-81
2021/07/23 08:32:25;;;;;;;6.90;5.53;;;;;;;23.45;51.05;101092.25;4960549;28;20038;-80
2021/07/23 08:34:58;;;;;;;7.32;5.60;;;;;;;23.58;50.27;101090.47;4972736;28;20038;-80
2021/07/23 08:37:25;;;;;;;7.78;5.20;;;;;;;23.87;54.71;101093.91;4955756;28;20092;-80
2021/07/23 08:39:51;;;;;;;7.10;5.25;;;;;;;23.99;50.46;101088.66;4957872;28;20046;-80
2021/07/23 08:42:28;;;;;;;7.50;5.07;;;;;;;24.19;51.49;101079.13;4936561;28;20114;-80
2021/07/23 08:44:56;;;;;;;5.68;4.43;;;;;;;24.33;49.34;101073.66;4972668;28;20038;-79
2021/07/23 08:47:23;;;;;;;6.10;4.75;;;;;;;24.14;47.87;101080.34;4940179;28;20034;-79
2021/07/23 08:49:51;;;;;;;6.65;5.13;;;;;;;24.04;47.47;101084.63;4951627;28;20456;-79
2021/07/23 08:52:46;;;;;;;9.63;5.85;;;;;;;24.26;48.29;101075.88;4968971;28;20057;-82
2021/07/23 08:55:14;;;;;;;6.28;5.07;;;;;;;24.18;48.76;101088.22;4960695;28;20042;-81
2021/07/23 08:57:42;;;;;;;7.60;5.38;;;;;;;23.58;47.24;101077.00;4954754;28;20038;-81
2021/07/23 09:00:13;;;;;;;6.05;5.03;;;;;;;23.61;51.06;101075.94;4971571;28;20035;-80
2021/07/23 09:03:08;;;;;;;8.38;5.43;;;;;;;23.53;51.77;101078.28;4967945;28;20039;-83
2021/07/23 09:05:42;;;;;;;6.32;5.05;;;;;;;23.32;51.79;101077.91;4959830;28;21715;-82
2021/07/23 09:08:13;;;;;;;8.25;5.47;;;;;;;23.09;52.68;101074.03;4954312;28;20074;-83
2021/07/23 09:10:41;;;;;;;6.65;4.80;;;;;;;23.33;53.64;101071.53;4965879;28;20050;-83
2021/07/23 09:13:09;;;;;;;5.65;5.03;;;;;;;23.44;52.20;101073.50;4981746;28;20053;-82
2021/07/23 09:15:41;;;;;;;70.45;14.80;;;;;;;23.66;52.70;101071.13;4952725;28;20050;-83
2021/07/23 09:18:36;;;;;;;5.75;4.68;;;;;;;23.89;51.90;101076.75;4955517;28;20050;-82
2021/07/23 09:21:09;;;;;;;7.45;5.40;;;;;;;23.97;48.56;101072.56;4982215;28;20046;-83
2021/07/23 09:23:39;;;;;;;8.10;5.38;;;;;;;24.34;49.55;101076.25;4975176;28;20600;-81
2021/07/23 09:26:09;;;;;;;9.38;5.22;;;;;;;24.61;47.52;101064.41;4956160;28;20039;-82
2021/07/23 09:28:38;;;;;;;5.53;5.00;;;;;;;24.94;49.49;101063.78;4991272;28;20065;-82
2021/07/23 09:31:06;;;;;;;7.57;5.25;;;;;;;25.12;48.79;101065.13;4987080;28;20039;-82
2021/07/23 09:33:35;;;;;;;6.35;5.47;;;;;;;25.01;48.01;101064.19;4974113;28;20050;-81
2021/07/23 09:36:04;;;;;;;18.02;5.25;;;;;;;25.09;45.16;101054.56;4971794;28;20058;-82
2021/07/23 09:38:42;;;;;;;6.03;4.75;;;;;;;24.97;48.28;101060.84;4988421;28;20046;-81
2021/07/23 09:41:21;;;;;;;5.95;4.70;;;;;;;24.99;46.91;101061.59;4990181;28;20042;-81
2021/07/23 09:44:11;;;;;;;8.68;5.40;;;;;;;24.89;49.37;101053.31;4990152;28;20046;-82
2021/07/23 09:46:42;;;;;;;8.18;5.28;;;;;;;25.27;47.16;101050.47;4972161;28;20049;-84
2021/07/23 09:49:21;;;;;;;5.47;4.63;;;;;;;25.44;48.73;101051.88;4973252;28;20420;-82
2021/07/23 09:51:52;;;;;;;7.32;4.88;;;;;;;25.38;46.47;101046.94;4990496;28;20053;-83
2021/07/23 09:54:19;;;;;;;7.72;5.57;;;;;;;25.31;45.55;101051.13;4959145;28;20046;-82
2021/07/23 09:56:47;;;;;;;5.45;4.43;;;;;;;25.14;46.33;101051.50;4954335;28;20511;-84
2021/07/23 09:59:38;;;;;;;5.78;5.15;;;;;;;25.26;47.30;101045.19;4959138;28;20393;-83
2021/07/23 10:02:12;;;;;;;6.97;4.80;;;;;;;24.69;45.99;101043.97;4988440;28;20082;-82
2021/07/23 10:04:49;;;;;;;5.60;5.05;;;;;;;24.58;47.93;101043.91;4977315;28;20783;-82
2021/07/23 10:07:19;;;;;;;5.88;4.80;;;;;;;24.38;47.97;101045.34;4973753;28;20059;-82
2021/07/23 10:09:47;;;;;;;6.78;4.70;;;;;;;24.20;48.27;101040.34;4984174;28;20034;-82
2021/07/23 10:12:16;;;;;;;5.40;4.40;;;;;;;24.29;47.84;101034.28;4942063;28;20042;-84
2021/07/23 10:14:45;;;;;;;7.25;5.43;;;;;;;24.09;48.47;101035.72;4988658;28;20066;-83
2021/07/23 10:17:13;;;;;;;7.15;4.88;;;;;;;24.08;49.66;101032.16;4973133;28;20051;-82
2021/07/23 10:19:41;;;;;;;5.65;5.00;;;;;;;24.52;50.45;101038.06;4958927;28;20038;-83
2021/07/23 10:22:11;;;;;;;7.03;5.55;;;;;;;24.73;46.96;101036.53;4959269;28;20101;-84
2021/07/23 10:24:41;;;;;;;8.48;5.88;;;;;;;24.95;48.88;101033.94;4981021;28;20077;-83
2021/07/23 10:27:12;;;;;;;6.28;5.47;;;;;;;25.20;46.40;101027.56;4957507;28;20038;-80
2021/07/23 10:29:47;;;;;;;8.30;5.53;;;;;;;25.32;46.82;101025.78;4977040;28;20041;-82
2021/07/23 10:32:23;;;;;;;5.88;5.25;;;;;;;25.58;47.04;101031.91;4972190;28;20077;-82
2021/07/23 10:34:52;;;;;;;6.15;5.10;;;;;;;25.93;45.44;101023.75;4988771;28;20049;-82
2021/07/23 10:37:31;;;;;;;6.15;5.47;;;;;;;26.26;46.80;101028.31;4986190;28;20047;-84
2021/07/23 10:40:13;;;;;;;6.50;5.20;;;;;;;26.02;43.87;101022.16;4990328;28;20027;-83
2021/07/23 10:42:42;;;;;;;6.53;4.93;;;;;;;25.71;45.10;101021.84;4990465;28;20074;-83
2021/07/23 10:45:20;;;;;;;5.95;4.80;;;;;;;25.75;44.64;101020.66;4963253;28;20034;-82
2021/07/23 10:47:48;;;;;;;7.28;5.43;;;;;;;25.63;44.52;101016.16;4958321;28;20053;-85
2021/07/23 10:50:25;;;;;;;7.47;5.32;;;;;;;25.32;45.81;101019.53;4992886;28;20412;-82
2021/07/23 10:52:52;;;;;;;7.80;5.38;;;;;;;25.22;47.30;101016.63;4975466;28;20053;-83
2021/07/23 10:55:24;;;;;;;6.78;5.38;;;;;;;24.94;48.40;101010.59;4965113;28;20252;-82
2021/07/23 10:58:04;;;;;;;6.65;4.85;;;;;;;24.68;49.57;101012.53;4980349;28;20050;-84
2021/07/23 11:00:47;;;;;;;7.85;5.45;;;;;;;24.65;50.53;101009.19;4991874;28;20403;-82
2021/07/23 11:03:39;;;;;;;6.70;5.70;;;;;;;24.33;47.93;101015.13;4952748;28;20058;-82
2021/07/23 11:06:28;;;;;;;5.93;5.13;;;;;;;24.20;51.20;101008.81;4956611;28;20042;-82
2021/07/23 11:09:08;;;;;;;7.43;5.38;;;;;;;24.05;51.31;101008.09;4972844;28;20046;-83
2021/07/23 11:11:35;;;;;;;8.38;4.90;;;;;;;23.84;52.51;101025.81;4981741;28;20081;-82
2021/07/23 11:14:16;;;;;;;8.85;5.97;;;;;;;23.76;53.03;101022.78;4969585;28;20137;-82
2021/07/23 11:16:44;;;;;;;7.95;6.55;;;;;;;23.72;50.90;101015.88;4972035;28;20038;-81
2021/07/23 11:19:19;;;;;;;6.88;5.35;;;;;;;23.68;51.28;101008.97;4972618;28;20450;-83
2021/07/23 11:21:46;;;;;;;6.47;5.43;;;;;;;23.62;52.46;101010.25;4944962;28;20149;-82
2021/07/23 11:24:13;;;;;;;7.68;5.88;;;;;;;24.01;52.35;101011.97;4954884;28;20612;-81
2021/07/23 11:26:51;;;;;;;7.70;5.47;;;;;;;24.41;48.45;101010.00;4968669;28;20050;-85